TimeMDT,TemperatureF,Dew PointF,Humidity,Sea Level PressureIn,VisibilityMPH,Wind Direction,Wind SpeedMPH,Gust SpeedMPH,PrecipitationIn,Events,Conditions,WindDirDegrees,DateUTC
12:53 AM,54.0,42.1,64,30.19,10.0,SSE,5.8,-,N/A,,Clear,150,2013-07-02 06:53:00
1:53 AM,53.1,41.0,64,30.18,10.0,SE,4.6,-,N/A,,Clear,140,2013-07-02 07:53:00
2:53 AM,52.0,41.0,66,30.19,10.0,South,8.1,-,N/A,,Clear,170,2013-07-02 08:53:00
3:53 AM,51.1,41.0,68,30.19,10.0,South,6.9,-,N/A,,Partly Cloudy,180,2013-07-02 09:53:00
4:53 AM,48.9,39.9,71,30.19,10.0,SSE,5.8,-,N/A,,Clear,160,2013-07-02 10:53:00
5:53 AM,50.0,41.0,71,30.19,10.0,SSE,6.9,-,N/A,,Clear,160,2013-07-02 11:53:00
6:53 AM,57.9,42.1,56,30.18,10.0,SSE,4.6,-,N/A,,Clear,150,2013-07-02 12:53:00
8:53 AM,70.0,41.0,35,30.18,10.0,South,10.4,-,N/A,,Clear,170,2013-07-02 14:53:00
9:53 AM,73.0,39.9,30,30.17,10.0,South,10.4,-,N/A,,Clear,170,2013-07-02 15:53:00
10:53 AM,73.9,39.0,28,30.17,10.0,Variable,6.9,-,N/A,,Clear,0,2013-07-02 16:53:00
11:53 AM,75.9,39.0,26,30.16,10.0,East,8.1,-,N/A,,Clear,100,2013-07-02 17:53:00
12:53 PM,77.0,37.0,24,30.14,10.0,East,6.9,-,N/A,,Clear,100,2013-07-02 18:53:00
1:53 PM,80.1,37.9,22,30.12,10.0,South,10.4,-,N/A,,Partly Cloudy,190,2013-07-02 19:53:00
2:53 PM,79.0,35.1,20,30.11,10.0,Calm,Calm,-,N/A,,Mostly Cloudy,0,2013-07-02 20:53:00
3:53 PM,79.0,36.0,21,30.09,10.0,South,5.8,-,N/A,,Scattered Clouds,190,2013-07-02 21:53:00
4:53 PM,81.0,35.1,19,30.08,10.0,NE,5.8,-,N/A,,Clear,40,2013-07-02 22:53:00
5:53 PM,80.1,34.0,19,30.06,10.0,Calm,Calm,-,N/A,,Clear,0,2013-07-02 23:53:00
6:53 PM,79.0,34.0,20,30.04,10.0,ESE,5.8,-,N/A,,Clear,110,2013-07-03 00:53:00
7:53 PM,71.1,39.0,31,30.05,10.0,East,5.8,-,N/A,,Partly Cloudy,90,2013-07-03 01:53:00
8:53 PM,64.0,39.9,41,30.06,10.0,ESE,8.1,-,N/A,,Clear,120,2013-07-03 02:53:00
9:53 PM,63.0,39.0,41,30.07,10.0,ESE,9.2,-,N/A,,Clear,120,2013-07-03 03:53:00
10:53 PM,59.0,41.0,51,30.07,10.0,SSE,4.6,-,N/A,,Partly Cloudy,160,2013-07-03 04:53:00
11:53 PM,60.1,39.9,47,30.07,10.0,South,5.8,-,N/A,,Overcast,170,2013-07-03 05:53:00